Time;durP1;ratioP1;P1;durP2;ratioP2;P2;SDS_P1;SDS_P2;PMS_P1;PMS_P2;Temp;Humidity;BMP_temperature;BMP_pressure;BME280_temperature;BME280_humidity;BME280_pressure;Samples;Min_cycle;Max_cycle;Signal;HPM_P1;HPM_P2
2023/10/29 00:00:11;;;;;;;0.40;0.30;;;;;;;16.49;100.00;95209.22;5133249;27;20495;-63
2023/10/29 00:02:39;;;;;;;0.50;0.30;;;;;;;16.42;100.00;95216.09;5132512;27;20431;-64
2023/10/29 00:05:08;;;;;;;0.50;0.30;;;;;;;16.44;100.00;95205.91;5132720;27;20529;-65
2023/10/29 00:07:39;;;;;;;0.40;0.20;;;;;;;16.36;100.00;95201.31;5133256;27;20438;-64
2023/10/29 00:10:08;;;;;;;0.40;0.30;;;;;;;16.21;100.00;95197.16;5132729;27;20445;-63
2023/10/29 00:12:36;;;;;;;0.50;0.40;;;;;;;16.38;100.00;95228.53;5133465;27;20928;-63
2023/10/29 00:15:06;;;;;;;0.50;0.30;;;;;;;16.26;100.00;95215.75;5133069;27;20492;-63
2023/10/29 00:17:34;;;;;;;0.70;0.30;;;;;;;16.31;100.00;95223.63;5132803;27;20430;-62
2023/10/29 00:20:06;;;;;;;0.40;0.30;;;;;;;16.27;100.00;95219.97;5106759;27;20526;-63
2023/10/29 00:22:34;;;;;;;1.70;0.97;;;;;;;16.26;100.00;95215.75;5132525;27;20434;-62
2023/10/29 00:25:05;;;;;;;0.50;0.30;;;;;;;16.24;100.00;95217.16;5132777;27;21013;-62
2023/10/29 00:27:33;;;;;;;0.40;0.30;;;;;;;16.08;100.00;95208.72;5132107;27;20529;-62
2023/10/29 00:30:01;;;;;;;0.53;0.43;;;;;;;15.84;100.00;95200.22;5133154;27;20517;-63
2023/10/29 00:32:30;;;;;;;0.40;0.30;;;;;;;15.66;100.00;95227.94;5132529;27;20812;-63
2023/10/29 00:34:58;;;;;;;0.50;0.40;;;;;;;15.88;100.00;95215.38;5132493;27;20441;-63
2023/10/29 00:37:26;;;;;;;0.50;0.30;;;;;;;15.95;100.00;95220.25;5132968;27;20482;-63
2023/10/29 00:39:55;;;;;;;0.40;0.20;;;;;;;15.75;100.00;95228.78;5132679;27;20840;-63
2023/10/29 00:42:24;;;;;;;0.50;0.30;;;;;;;15.71;100.00;95188.50;5131968;27;20434;-62
2023/10/29 00:44:53;;;;;;;0.50;0.40;;;;;;;15.67;100.00;95192.09;5132625;27;20521;-63
2023/10/29 00:47:21;;;;;;;0.40;0.30;;;;;;;15.65;100.00;95232.47;5131026;27;20470;-63
2023/10/29 00:49:50;;;;;;;1.43;1.43;;;;;;;15.76;100.00;95244.50;5132493;27;20434;-64
2023/10/29 00:52:18;;;;;;;0.50;0.30;;;;;;;15.58;100.00;95245.47;5117921;27;20455;-64
2023/10/29 00:54:46;;;;;;;0.50;0.30;;;;;;;14.98;100.00;95255.53;5132469;27;20430;-62
2023/10/29 00:57:16;;;;;;;0.40;0.27;;;;;;;14.66;100.00;95260.97;5132560;27;20517;-62
2023/10/29 00:59:47;;;;;;;0.40;0.30;;;;;;;14.93;100.00;95252.97;5132554;27;20439;-62
2023/10/29 01:02:16;;;;;;;0.50;0.40;;;;;;;14.51;100.00;95251.38;5131044;27;20434;-62
2023/10/29 01:04:45;;;;;;;0.60;0.60;;;;;;;14.31;100.00;95261.63;5132485;27;20974;-61
2023/10/29 01:07:13;;;;;;;0.60;0.53;;;;;;;13.92;100.00;95260.09;5132301;28;20523;-61
2023/10/29 01:09:43;;;;;;;0.40;0.30;;;;;;;13.95;100.00;95264.06;5131978;28;20469;-61
2023/10/29 01:12:16;;;;;;;0.40;0.27;;;;;;;14.60;100.00;95265.59;5132851;28;20500;-62
2023/10/29 01:14:46;;;;;;;0.40;0.20;;;;;;;14.58;100.00;95259.78;5131808;28;20541;-62
2023/10/29 01:17:14;;;;;;;0.60;0.30;;;;;;;14.65;100.00;95264.72;5132282;28;20940;-62
2023/10/29 01:19:43;;;;;;;0.40;0.27;;;;;;;14.87;100.00;95267.50;5131686;28;20458;-62
2023/10/29 01:22:11;;;;;;;12.10;1.63;;;;;;;15.09;100.00;95261.44;5132228;28;20439;-62
2023/10/29 01:24:39;;;;;;;0.60;0.60;;;;;;;14.51;100.00;95261.25;5132003;28;20430;-62
2023/10/29 01:27:09;;;;;;;0.40;0.30;;;;;;;14.89;100.00;95262.66;5131923;28;20550;-62
2023/10/29 01:29:37;;;;;;;1.43;0.30;;;;;;;15.03;100.00;95265.31;5132293;28;20438;-61
2023/10/29 01:32:08;;;;;;;0.43;0.30;;;;;;;15.08;100.00;95262.53;5132025;28;20454;-62
2023/10/29 01:34:37;;;;;;;10.73;0.93;;;;;;;14.67;100.00;95265.22;5132143;28;20430;-62
2023/10/29 01:37:05;;;;;;;0.50;0.40;;;;;;;14.80;100.00;95251.09;5131979;28;20509;-61
2023/10/29 01:39:33;;;;;;;1.53;0.70;;;;;;;15.07;100.00;95269.78;5133619;27;20532;-62
2023/10/29 01:42:01;;;;;;;0.40;0.30;;;;;;;15.02;100.00;95264.53;5135559;27;20471;-62
2023/10/29 01:44:30;;;;;;;0.40;0.20;;;;;;;14.77;100.00;95265.03;5136524;27;20461;-61
2023/10/29 01:46:59;;;;;;;0.50;0.30;;;;;;;14.92;100.00;95267.41;5136240;27;20477;-62
2023/10/29 01:49:28;;;;;;;0.40;0.30;;;;;;;15.05;100.00;95266.59;5136183;27;20438;-61
2023/10/29 01:51:57;;;;;;;0.67;0.57;;;;;;;15.11;100.00;95265.41;5136015;27;20462;-62
2023/10/29 01:54:25;;;;;;;0.40;0.30;;;;;;;15.18;100.00;95270.34;5136106;27;20438;-62
2023/10/29 01:56:53;;;;;;;0.40;0.30;;;;;;;15.19;100.00;95271.94;5134775;27;20430;-62
2023/10/29 01:59:22;;;;;;;0.40;0.20;;;;;;;15.22;100.00;95274.00;5135797;27;20438;-61
2023/10/29 02:01:50;;;;;;;0.40;0.20;;;;;;;15.10;100.00;95257.72;5135397;27;20441;-62
2023/10/29 02:04:20;;;;;;;0.53;0.50;;;;;;;15.18;100.00;95268.47;5135675;27;20438;-62
2023/10/29 02:06:50;;;;;;;0.40;0.30;;;;;;;15.24;100.00;95272.63;5135721;27;20478;-62
2023/10/29 02:09:18;;;;;;;0.50;0.30;;;;;;;14.87;100.00;95222.16;5135757;27;20477;-61
2023/10/29 02:11:46;;;;;;;0.40;0.30;;;;;;;15.21;100.00;95286.56;5135046;27;20521;-62
2023/10/29 02:14:15;;;;;;;0.40;0.30;;;;;;;15.00;100.00;95276.59;5135635;27;20438;-62
2023/10/29 02:16:43;;;;;;;0.40;0.30;;;;;;;14.62;100.00;95282.09;5135768;27;20441;-62
2023/10/29 02:19:11;;;;;;;0.40;0.30;;;;;;;14.10;100.00;95249.69;5135620;27;20434;-62
2023/10/29 02:21:40;;;;;;;0.40;0.20;;;;;;;14.18;100.00;95297.00;5135339;27;20884;-63
2023/10/29 02:24:10;;;;;;;0.40;0.30;;;;;;;14.17;100.00;95298.88;5135167;27;20498;-61
2023/10/29 02:26:38;;;;;;;0.40;0.20;;;;;;;14.28;100.00;95302.97;5135001;27;20481;-62
2023/10/29 02:29:06;;;;;;;0.40;0.30;;;;;;;14.34;100.00;95303.69;5135141;27;20442;-62
2023/10/29 02:31:35;;;;;;;0.40;0.20;;;;;;;14.26;100.00;95310.47;5135522;27;20438;-62
2023/10/29 02:34:03;;;;;;;0.70;0.40;;;;;;;14.39;100.00;95300.94;5120855;27;20451;-62
2023/10/29 02:36:32;;;;;;;0.50;0.40;;;;;;;14.57;100.00;95308.88;5135200;27;20427;-63
2023/10/29 02:39:00;;;;;;;0.60;0.40;;;;;;;14.50;100.00;95307.66;5134868;27;20450;-62
2023/10/29 02:41:29;;;;;;;0.40;0.30;;;;;;;14.27;100.00;95264.03;5135045;27;20487;-62
2023/10/29 02:43:58;;;;;;;0.60;0.40;;;;;;;14.33;100.00;95310.91;5134847;27;20441;-62
2023/10/29 02:46:26;;;;;;;0.40;0.30;;;;;;;14.21;100.00;95299.88;5135170;27;20506;-62
2023/10/29 02:48:55;;;;;;;1.37;0.30;;;;;;;14.23;100.00;95312.91;5134507;27;20431;-62
2023/10/29 02:51:23;;;;;;;1.73;0.63;;;;;;;14.46;100.00;95314.69;5135089;27;20438;-63
2023/10/29 02:53:51;;;;;;;0.70;0.40;;;;;;;14.29;100.00;95322.41;5134622;27;20434;-62
2023/10/29 02:56:20;;;;;;;0.40;0.30;;;;;;;14.28;100.00;95323.47;5134769;27;20439;-62
2023/10/29 02:58:49;;;;;;;0.50;0.50;;;;;;;14.45;100.00;95313.09;5134714;27;20487;-62
2023/10/29 03:01:18;;;;;;;0.50;0.30;;;;;;;14.41;100.00;95314.78;5134888;27;20430;-61
2023/10/29 03:03:46;;;;;;;0.40;0.20;;;;;;;14.16;100.00;95318.63;5134517;27;20809;-62
2023/10/29 03:06:15;;;;;;;0.50;0.30;;;;;;;14.30;100.00;95318.66;5134223;27;20439;-60
2023/10/29 03:08:43;;;;;;;0.90;0.40;;;;;;;14.26;100.00;95317.66;5108236;27;20535;-62
2023/10/29 03:11:12;;;;;;;0.40;0.30;;;;;;;14.10;100.00;95314.44;5134542;27;20430;-61
2023/10/29 03:13:41;;;;;;;0.90;0.40;;;;;;;14.09;100.00;95325.41;5134381;27;20435;-62
2023/10/29 03:16:10;;;;;;;0.50;0.40;;;;;;;14.22;100.00;95327.34;5134383;27;20916;-62
2023/10/29 03:18:39;;;;;;;0.67;0.40;;;;;;;14.20;100.00;95332.13;5134321;27;20438;-62
2023/10/29 03:21:07;;;;;;;0.57;0.30;;;;;;;14.06;100.00;95328.66;5134277;27;20931;-62
2023/10/29 03:23:35;;;;;;;0.60;0.40;;;;;;;14.24;100.00;95330.50;5134376;27;20525;-62
2023/10/29 03:26:04;;;;;;;1.77;0.30;;;;;;;13.71;100.00;95341.38;5134216;27;20431;-62
2023/10/29 03:28:33;;;;;;;0.50;0.30;;;;;;;13.85;100.00;95344.13;5134242;27;20478;-62
2023/10/29 03:31:01;;;;;;;0.40;0.30;;;;;;;14.07;100.00;95341.66;5134203;27;20464;-62
2023/10/29 03:33:31;;;;;;;0.70;0.40;;;;;;;14.06;100.00;95339.31;5134496;27;20503;-62
2023/10/29 03:36:04;;;;;;;0.50;0.40;;;;;;;14.05;100.00;95335.03;5133155;27;20513;-62
2023/10/29 03:38:32;;;;;;;5.30;0.30;;;;;;;14.32;100.00;95340.53;5133868;27;20468;-62
2023/10/29 03:41:01;;;;;;;0.40;0.40;;;;;;;14.07;100.00;95284.91;5133649;27;20955;-62
2023/10/29 03:43:29;;;;;;;0.50;0.30;;;;;;;14.04;100.00;95344.91;5133682;27;20491;-62
2023/10/29 03:45:59;;;;;;;0.40;0.30;;;;;;;13.93;100.00;95343.50;5133766;27;20435;-62
2023/10/29 03:48:28;;;;;;;0.50;0.40;;;;;;;14.13;100.00;95345.06;5133779;27;20470;-62
2023/10/29 03:51:02;;;;;;;0.60;0.60;;;;;;;14.34;100.00;95349.03;5133377;27;20435;-62
2023/10/29 03:53:30;;;;;;;1.40;0.33;;;;;;;14.44;100.00;95343.53;5133312;27;20494;-61
2023/10/29 03:56:00;;;;;;;0.40;0.20;;;;;;;14.43;100.00;95344.59;5133621;27;20434;-62
2023/10/29 03:58:28;;;;;;;0.40;0.20;;;;;;;14.20;100.00;95342.81;5134001;27;20990;-60
2023/10/29 04:00:57;;;;;;;0.40;0.20;;;;;;;13.93;100.00;95295.53;5133906;27;20488;-61
2023/10/29 04:03:25;;;;;;;0.60;0.60;;;;;;;14.30;100.00;95345.31;5132641;27;20474;-61
2023/10/29 04:05:53;;;;;;;0.40;0.30;;;;;;;14.30;100.00;95347.97;5133458;27;20781;-61
2023/10/29 04:08:23;;;;;;;0.40;0.27;;;;;;;14.12;100.00;95348.78;5133410;27;20470;-61
2023/10/29 04:10:52;;;;;;;0.40;0.30;;;;;;;13.92;100.00;95347.22;5133337;27;20835;-61
2023/10/29 04:13:20;;;;;;;0.40;0.40;;;;;;;13.79;100.00;95354.06;5133245;27;20588;-60
2023/10/29 04:15:48;;;;;;;0.50;0.30;;;;;;;13.87;100.00;95358.75;5133430;27;20956;-62
2023/10/29 04:18:17;;;;;;;0.40;0.30;;;;;;;13.58;100.00;95363.44;5133110;27;20438;-60
2023/10/29 04:20:45;;;;;;;0.50;0.43;;;;;;;12.83;100.00;95342.97;5118522;27;20442;-60
2023/10/29 04:23:13;;;;;;;0.53;0.30;;;;;;;12.79;100.00;95373.88;5133372;27;20503;-60
2023/10/29 04:25:44;;;;;;;0.50;0.30;;;;;;;13.27;100.00;95367.53;5131796;27;20495;-60
2023/10/29 04:28:12;;;;;;;0.50;0.30;;;;;;;13.48;100.00;95360.09;5130688;27;20486;-60
2023/10/29 04:30:40;;;;;;;0.50;0.30;;;;;;;13.62;100.00;95361.78;5133411;27;20442;-61
2023/10/29 04:33:09;;;;;;;0.50;0.30;;;;;;;13.73;100.00;95375.75;5119300;27;20520;-60
2023/10/29 04:35:37;;;;;;;0.80;0.40;;;;;;;13.82;100.00;95377.47;5132763;27;20924;-61
2023/10/29 04:38:06;;;;;;;0.40;0.30;;;;;;;13.78;100.00;95371.16;5132752;27;20438;-61
2023/10/29 04:40:34;;;;;;;4.63;0.83;;;;;;;14.01;100.00;95372.16;5132083;27;20435;-60
2023/10/29 04:43:04;;;;;;;0.40;0.30;;;;;;;13.75;100.00;95322.97;5132975;27;20484;-61
2023/10/29 04:45:33;;;;;;;0.40;0.30;;;;;;;14.20;100.00;95377.47;5132028;27;20442;-60
2023/10/29 04:48:01;;;;;;;3.00;0.40;;;;;;;13.85;100.00;95358.25;5132971;27;20474;-60
2023/10/29 04:50:30;;;;;;;0.90;0.90;;;;;;;14.05;100.00;95359.03;5132366;27;20438;-60
2023/10/29 04:52:58;;;;;;;0.40;0.30;;;;;;;14.18;100.00;95368.97;5132448;27;20435;-61
2023/10/29 04:55:27;;;;;;;0.50;0.50;;;;;;;14.27;100.00;95372.56;5132079;27;20452;-61
2023/10/29 04:57:55;;;;;;;0.80;0.40;;;;;;;14.28;100.00;95380.28;5131877;27;20498;-61
2023/10/29 05:00:25;;;;;;;0.50;0.30;;;;;;;14.30;100.00;95371.97;5132335;27;20442;-61
2023/10/29 05:02:54;;;;;;;0.50;0.30;;;;;;;14.10;100.00;95373.06;5132285;27;20442;-61
2023/10/29 05:05:22;;;;;;;0.60;0.60;;;;;;;14.19;100.00;95375.88;5132160;27;20430;-61
2023/10/29 05:07:50;;;;;;;0.50;0.50;;;;;;;13.96;100.00;95383.66;5131886;27;21169;-60
2023/10/29 05:10:19;;;;;;;0.50;0.30;;;;;;;13.45;100.00;95376.63;5132502;28;20447;-61
2023/10/29 05:12:47;;;;;;;4.33;0.30;;;;;;;13.63;100.00;95387.34;5132359;28;20894;-61
2023/10/29 05:15:16;;;;;;;0.63;0.53;;;;;;;13.80;100.00;95390.28;5134741;27;20525;-62
2023/10/29 05:17:45;;;;;;;0.60;0.30;;;;;;;14.06;100.00;95397.94;5136689;27;20441;-61
2023/10/29 05:20:14;;;;;;;0.60;0.60;;;;;;;14.06;100.00;95406.72;5126687;27;20525;-61
2023/10/29 05:22:42;;;;;;;0.70;0.50;;;;;;;14.02;100.00;95413.69;5132764;27;20452;-61
2023/10/29 05:25:11;;;;;;;0.80;0.80;;;;;;;13.81;100.00;95383.88;5136371;27;20494;-62
2023/10/29 05:27:39;;;;;;;0.60;0.30;;;;;;;14.28;100.00;95411.47;5135393;27;20552;-62
2023/10/29 05:30:08;;;;;;;0.40;0.27;;;;;;;14.71;100.00;95420.94;5136364;27;20477;-62
2023/10/29 05:32:36;;;;;;;0.50;0.40;;;;;;;14.70;100.00;95423.91;5136146;27;20465;-63
2023/10/29 05:35:08;;;;;;;4.83;0.50;;;;;;;14.44;100.00;95427.00;5136320;27;20438;-63
2023/10/29 05:37:36;;;;;;;0.50;0.40;;;;;;;14.37;100.00;95420.44;5136193;27;20434;-63
2023/10/29 05:40:07;;;;;;;0.50;0.30;;;;;;;14.92;100.00;95422.19;5135992;27;20807;-64
2023/10/29 05:42:36;;;;;;;0.70;0.50;;;;;;;15.25;100.00;95430.94;5135716;27;20466;-64
2023/10/29 05:45:06;;;;;;;0.70;0.40;;;;;;;15.65;100.00;95426.72;5135369;27;20446;-65
2023/10/29 05:47:35;;;;;;;0.50;0.30;;;;;;;15.87;99.54;95432.94;5135300;27;20450;-66
2023/10/29 05:50:04;;;;;;;1.20;0.50;;;;;;;15.89;100.00;95427.28;5133420;27;20556;-64
2023/10/29 05:52:34;;;;;;;1.23;1.13;;;;;;;16.21;100.00;95439.72;5135053;27;20517;-66
2023/10/29 05:55:03;;;;;;;0.60;0.53;;;;;;;16.64;94.38;95438.22;5124502;27;20758;-65
2023/10/29 05:57:31;;;;;;;0.50;0.47;;;;;;;16.94;92.02;95444.72;5135733;27;20580;-65
2023/10/29 06:00:00;;;;;;;7.60;0.90;;;;;;;17.03;90.33;95449.00;5135677;27;20435;-66
2023/10/29 06:02:28;;;;;;;1.27;1.17;;;;;;;17.38;87.18;95449.97;5135510;27;20524;-67
2023/10/29 06:04:56;;;;;;;1.93;1.73;;;;;;;17.66;88.03;95446.03;5134811;27;20501;-68
2023/10/29 06:07:25;;;;;;;7.27;0.90;;;;;;;17.92;86.72;95453.34;5134508;27;20947;-68
2023/10/29 06:09:56;;;;;;;1.97;0.93;;;;;;;17.95;85.29;95450.84;5134748;27;20503;-65
2023/10/29 06:12:24;;;;;;;1.53;1.43;;;;;;;17.73;84.42;95400.03;5135753;27;20830;-65
2023/10/29 06:14:52;;;;;;;2.20;1.23;;;;;;;18.35;80.89;95462.28;5134817;27;20480;-64
2023/10/29 06:17:21;;;;;;;0.93;0.60;;;;;;;18.86;79.05;95466.91;5134816;27;20450;-64
2023/10/29 06:19:54;;;;;;;1.37;1.27;;;;;;;18.88;78.92;95406.38;5134301;27;20470;-64
2023/10/29 06:22:22;;;;;;;0.70;0.40;;;;;;;19.36;76.01;95470.59;5135040;27;20541;-62
2023/10/29 06:24:51;;;;;;;0.80;0.80;;;;;;;19.55;75.64;95470.28;5134876;27;20506;-61
2023/10/29 06:27:21;;;;;;;0.93;0.93;;;;;;;19.95;74.16;95474.22;5133148;27;20474;-60
2023/10/29 06:29:50;;;;;;;1.13;0.90;;;;;;;20.59;71.08;95474.00;5126927;27;20477;-60
2023/10/29 06:32:19;;;;;;;0.60;0.50;;;;;;;20.70;69.80;95473.28;5134848;27;20477;-59
2023/10/29 06:34:48;;;;;;;0.50;0.40;;;;;;;20.62;69.78;95473.31;5134833;27;20443;-60
2023/10/29 06:37:17;;;;;;;0.67;0.53;;;;;;;21.03;69.34;95476.00;5135048;27;20430;-59
2023/10/29 06:39:45;;;;;;;0.57;0.40;;;;;;;21.22;69.42;95470.16;5134463;27;20450;-59
2023/10/29 06:42:13;;;;;;;0.63;0.30;;;;;;;21.35;67.43;95469.84;5134182;27;20503;-59
2023/10/29 06:44:43;;;;;;;10.50;0.50;;;;;;;21.44;67.00;95448.97;5134393;27;20434;-59
2023/10/29 06:47:13;;;;;;;0.77;0.63;;;;;;;21.79;66.46;95462.06;5134215;27;20442;-59
2023/10/29 06:49:41;;;;;;;0.40;0.30;;;;;;;22.02;62.89;95466.72;5134075;27;20474;-60
2023/10/29 06:52:11;;;;;;;0.80;0.63;;;;;;;22.27;63.94;95477.47;5134829;27;20476;-60
2023/10/29 06:54:39;;;;;;;0.60;0.40;;;;;;;22.38;62.51;95479.41;5134108;27;20954;-62
2023/10/29 06:57:07;;;;;;;0.77;0.50;;;;;;;22.67;60.44;95473.72;5134923;27;20865;-62
2023/10/29 06:59:36;;;;;;;1.87;1.00;;;;;;;22.89;61.31;95477.06;5134569;27;20449;-62
2023/10/29 07:02:06;;;;;;;0.50;0.30;;;;;;;23.31;59.17;95473.63;5134187;27;20422;-61
2023/10/29 07:04:35;;;;;;;0.97;0.93;;;;;;;22.88;59.46;95462.75;5134318;27;20858;-61
2023/10/29 07:07:03;;;;;;;0.60;0.57;;;;;;;22.95;59.59;95465.66;5134183;27;20438;-60
2023/10/29 07:09:32;;;;;;;0.60;0.40;;;;;;;21.83;61.38;95460.28;5133861;27;20478;-60
2023/10/29 07:12:01;;;;;;;0.60;0.60;;;;;;;21.60;62.58;95478.00;5134358;27;20827;-60
2023/10/29 07:14:29;;;;;;;1.43;0.50;;;;;;;22.70;61.10;95464.94;5133625;27;20521;-60
2023/10/29 07:16:57;;;;;;;0.70;0.40;;;;;;;23.55;60.14;95461.91;5134112;27;20438;-60
2023/10/29 07:19:27;;;;;;;0.77;0.77;;;;;;;22.40;60.07;95469.03;5131876;27;20491;-60
2023/10/29 07:21:55;;;;;;;0.50;0.30;;;;;;;22.60;60.01;95461.91;5122774;27;20446;-60
2023/10/29 07:24:24;;;;;;;0.50;0.37;;;;;;;22.62;60.05;95473.19;5133291;27;20997;-61
2023/10/29 07:26:52;;;;;;;0.60;0.60;;;;;;;23.48;58.01;95472.53;5134173;27;20470;-59
2023/10/29 07:29:20;;;;;;;0.60;0.50;;;;;;;23.16;60.03;95478.97;5133627;27;20484;-60
2023/10/29 07:31:48;;;;;;;0.67;0.43;;;;;;;24.09;57.96;95474.84;5133830;27;20442;-60
2023/10/29 07:34:17;;;;;;;0.70;0.50;;;;;;;24.61;56.41;95469.88;5133305;27;20489;-60
2023/10/29 07:36:47;;;;;;;0.50;0.40;;;;;;;24.87;54.50;95456.50;5133154;27;20442;-60
2023/10/29 07:39:15;;;;;;;0.60;0.40;;;;;;;25.10;53.75;95464.69;5133254;27;20495;-60
2023/10/29 07:41:44;;;;;;;1.30;0.60;;;;;;;25.35;52.00;95467.91;5134167;27;20503;-58
2023/10/29 07:44:12;;;;;;;0.60;0.30;;;;;;;25.97;52.13;95467.50;5132296;27;20796;-58
2023/10/29 07:46:40;;;;;;;0.70;0.60;;;;;;;24.24;53.24;95457.78;5132756;27;21046;-57
2023/10/29 07:49:09;;;;;;;0.40;0.30;;;;;;;24.76;55.17;95466.31;5131114;27;20469;-57
2023/10/29 07:51:38;;;;;;;0.60;0.60;;;;;;;24.50;53.27;95453.38;5132052;27;20443;-56
2023/10/29 07:54:07;;;;;;;0.90;0.90;;;;;;;24.58;53.19;95467.88;5133510;27;20815;-56
2023/10/29 07:56:36;;;;;;;0.93;0.93;;;;;;;25.43;52.18;95461.44;5129664;27;20431;-56
2023/10/29 07:59:04;;;;;;;0.57;0.40;;;;;;;25.81;49.92;95455.97;5131115;27;20464;-56
2023/10/29 08:01:32;;;;;;;0.50;0.40;;;;;;;26.13;49.43;95460.03;5130541;27;20446;-57
2023/10/29 08:04:01;;;;;;;0.50;0.50;;;;;;;26.51;49.23;95461.75;5130887;27;20522;-56
2023/10/29 08:06:29;;;;;;;0.50;0.40;;;;;;;26.23;49.34;95459.41;5131462;27;20438;-56
2023/10/29 08:08:57;;;;;;;0.43;0.40;;;;;;;26.73;47.63;95425.53;5132403;27;20491;-57
2023/10/29 08:11:27;;;;;;;0.40;0.30;;;;;;;27.33;47.61;95453.47;5132671;27;20474;-57
2023/10/29 08:13:56;;;;;;;0.50;0.50;;;;;;;27.45;45.84;95442.34;5132553;27;20446;-57
2023/10/29 08:16:25;;;;;;;0.67;0.40;;;;;;;27.09;45.90;95422.13;5133398;27;20434;-57
2023/10/29 08:18:53;;;;;;;0.30;0.20;;;;;;;27.84;45.01;95445.44;5132766;27;20443;-56
2023/10/29 08:21:22;;;;;;;0.43;0.37;;;;;;;27.81;44.31;95448.94;5132925;27;20430;-56
2023/10/29 08:23:50;;;;;;;1.03;0.53;;;;;;;28.23;44.67;95451.25;5133302;27;20507;-56
2023/10/29 08:26:19;;;;;;;4.70;0.70;;;;;;;28.61;42.86;95453.50;5132076;27;20497;-57
2023/10/29 08:28:48;;;;;;;0.30;0.20;;;;;;;29.11;41.69;95418.22;5119841;27;20498;-57
2023/10/29 08:31:17;;;;;;;0.40;0.30;;;;;;;29.48;41.54;95441.38;5132234;27;20999;-57
2023/10/29 08:33:45;;;;;;;0.60;0.60;;;;;;;29.68;41.28;95450.00;5132925;27;20475;-57
2023/10/29 08:36:16;;;;;;;0.37;0.30;;;;;;;29.35;41.28;95450.31;5132878;27;20491;-57
2023/10/29 08:38:45;;;;;;;0.40;0.40;;;;;;;29.42;40.87;95442.16;5132685;27;20434;-57
2023/10/29 08:41:14;;;;;;;1.53;0.40;;;;;;;30.03;41.32;95452.03;5132907;27;20434;-57
2023/10/29 08:43:42;;;;;;;0.40;0.40;;;;;;;30.31;40.54;95446.53;5133000;27;20438;-58
2023/10/29 08:46:12;;;;;;;0.30;0.20;;;;;;;31.40;38.84;95456.41;5132685;27;20442;-57
2023/10/29 08:48:40;;;;;;;0.30;0.30;;;;;;;31.40;37.09;95445.44;5132530;27;20435;-56
2023/10/29 08:51:09;;;;;;;0.40;0.30;;;;;;;31.93;38.02;95450.63;5132717;27;21128;-56
2023/10/29 08:53:37;;;;;;;0.60;0.50;;;;;;;31.33;37.13;95440.81;5132109;27;20430;-57
2023/10/29 08:56:07;;;;;;;0.40;0.40;;;;;;;31.27;38.31;95430.69;5132646;27;20434;-57
2023/10/29 08:58:35;;;;;;;0.80;0.80;;;;;;;30.92;37.52;95449.97;5132489;27;20429;-57
2023/10/29 09:01:07;;;;;;;0.40;0.30;;;;;;;31.38;36.96;95447.81;5132544;27;20466;-57
2023/10/29 09:03:37;;;;;;;0.40;0.30;;;;;;;31.65;37.36;95459.81;5132363;27;20441;-57
2023/10/29 09:06:07;;;;;;;0.50;0.40;;;;;;;31.39;36.30;95450.19;5132243;27;20434;-58
2023/10/29 09:08:36;;;;;;;1.03;0.60;;;;;;;31.29;36.80;95451.00;5132197;27;20512;-58
2023/10/29 09:11:05;;;;;;;0.47;0.33;;;;;;;32.40;35.48;95416.97;5132313;28;20473;-58
2023/10/29 09:13:34;;;;;;;1.00;0.40;;;;;;;32.89;34.55;95436.88;5105955;28;20429;-58
2023/10/29 09:16:02;;;;;;;0.30;0.20;;;;;;;32.38;35.01;95446.78;5132188;28;20434;-58
2023/10/29 09:18:31;;;;;;;3.33;0.77;;;;;;;31.79;35.56;95440.56;5132245;28;20445;-58
2023/10/29 09:21:01;;;;;;;0.40;0.40;;;;;;;31.99;35.56;95440.84;5131444;28;20819;-58
2023/10/29 09:23:29;;;;;;;0.30;0.30;;;;;;;32.55;33.89;95443.09;5132064;28;20927;-59
2023/10/29 09:26:18;;;;;;;0.50;0.50;;;;;;;31.53;35.25;95421.16;5131981;28;20499;-59
2023/10/29 09:28:54;;;;;;;1.23;1.13;;;;;;;31.80;34.51;95436.63;5132196;28;20496;-58
2023/10/29 09:31:22;;;;;;;0.40;0.30;;;;;;;31.44;34.01;95440.75;5105109;28;20469;-59
2023/10/29 09:33:51;;;;;;;0.50;0.27;;;;;;;32.52;32.78;95446.66;5131468;28;20434;-59
2023/10/29 09:36:24;;;;;;;0.47;0.47;;;;;;;32.84;32.67;95440.81;5131962;28;20430;-60
2023/10/29 09:38:52;;;;;;;0.40;0.30;;;;;;;33.05;32.51;95432.38;5132008;28;20434;-59
2023/10/29 09:41:20;;;;;;;0.30;0.30;;;;;;;33.18;31.77;95427.91;5132214;28;20434;-59
2023/10/29 09:43:52;;;;;;;1.80;0.53;;;;;;;33.29;32.27;95427.78;5131964;28;20494;-59
2023/10/29 09:46:21;;;;;;;0.60;0.40;;;;;;;33.86;31.92;95419.50;5132331;28;20429;-59
2023/10/29 09:48:50;;;;;;;0.40;0.40;;;;;;;34.37;31.50;95416.34;5131895;28;20939;-60
2023/10/29 09:51:22;;;;;;;0.50;0.40;;;;;;;34.67;29.69;95425.66;5131674;28;20514;-59
2023/10/29 09:53:51;;;;;;;0.40;0.30;;;;;;;34.93;29.69;95414.53;5131720;28;20437;-59
2023/10/29 09:56:20;;;;;;;0.40;0.30;;;;;;;34.52;31.74;95413.31;5132053;28;20453;-59
2023/10/29 09:58:48;;;;;;;0.40;0.30;;;;;;;34.55;30.60;95413.28;5132240;28;20261;-59
2023/10/29 10:01:17;;;;;;;0.40;0.30;;;;;;;34.32;29.94;95405.03;5134548;27;20430;-59
2023/10/29 10:03:45;;;;;;;0.30;0.27;;;;;;;34.66;30.37;95356.03;5135937;27;20438;-59
2023/10/29 10:06:15;;;;;;;0.30;0.20;;;;;;;35.51;29.89;95365.28;5135234;27;20429;-59
2023/10/29 10:08:55;;;;;;;0.40;0.30;;;;;;;36.35;28.27;95389.31;5135949;27;20249;-60
2023/10/29 10:11:24;;;;;;;0.53;0.30;;;;;;;35.37;29.30;95360.09;5134889;27;20225;-59
2023/10/29 10:13:53;;;;;;;0.40;0.30;;;;;;;35.42;30.66;95392.69;5135381;27;20200;-59
2023/10/29 10:16:21;;;;;;;0.40;0.30;;;;;;;34.90;30.67;95360.28;5135323;27;20192;-59
2023/10/29 10:18:51;;;;;;;1.43;0.60;;;;;;;34.80;29.65;95388.81;5135911;27;20275;-59
2023/10/29 10:21:21;;;;;;;0.40;0.40;;;;;;;35.06;29.81;95390.69;5135843;27;20241;-59
2023/10/29 10:23:52;;;;;;;0.30;0.30;;;;;;;34.67;30.55;95371.38;5136105;27;20192;-60
2023/10/29 10:26:30;;;;;;;6.73;0.50;;;;;;;34.54;30.26;95397.16;5134726;27;20230;-59
2023/10/29 10:28:59;;;;;;;0.30;0.20;;;;;;;34.55;30.78;95387.75;5135151;27;20609;-59
2023/10/29 10:31:30;;;;;;;0.50;0.30;;;;;;;34.61;29.35;95367.53;5135311;27;20272;-60
2023/10/29 10:34:13;;;;;;;0.30;0.23;;;;;;;35.07;29.22;95394.19;5135715;27;20207;-59
2023/10/29 10:36:43;;;;;;;0.73;0.30;;;;;;;36.39;27.65;95385.25;5135339;27;20192;-59
2023/10/29 10:39:13;;;;;;;0.30;0.20;;;;;;;35.60;28.30;95384.78;5134892;27;20208;-59
2023/10/29 10:41:43;;;;;;;0.40;0.30;;;;;;;35.88;27.53;95384.13;5135138;27;20580;-59
2023/10/29 10:44:13;;;;;;;0.30;0.30;;;;;;;35.99;28.14;95375.59;5134962;27;20228;-59
2023/10/29 10:46:48;;;;;;;0.30;0.30;;;;;;;35.68;27.86;95377.91;5135146;27;20207;-59
2023/10/29 10:49:17;;;;;;;0.40;0.40;;;;;;;35.35;27.80;95329.41;5110104;27;20191;-59
2023/10/29 10:51:48;;;;;;;0.40;0.30;;;;;;;35.52;27.18;95351.09;5135003;27;20724;-59
2023/10/29 10:54:18;;;;;;;0.40;0.30;;;;;;;35.54;26.22;95334.13;5134980;27;20200;-59
2023/10/29 10:56:47;;;;;;;0.50;0.40;;;;;;;34.84;27.42;95375.75;5134388;27;20658;-59
2023/10/29 10:59:16;;;;;;;0.40;0.30;;;;;;;35.17;28.28;95362.88;5134267;27;20676;-59
2023/10/29 11:01:44;;;;;;;4.40;0.30;;;;;;;35.02;27.00;95356.88;5133747;27;20218;-59
2023/10/29 11:04:14;;;;;;;0.40;0.30;;;;;;;35.09;29.22;95359.50;5134197;27;20283;-59
2023/10/29 11:06:44;;;;;;;0.40;0.27;;;;;;;35.73;27.00;95352.56;5133895;27;20539;-58
2023/10/29 11:09:13;;;;;;;0.53;0.30;;;;;;;34.82;27.85;95352.59;5134516;27;20702;-59
2023/10/29 11:11:54;;;;;;;0.40;0.40;;;;;;;34.16;29.30;95350.66;5133775;27;20307;-58
2023/10/29 11:14:24;;;;;;;0.50;0.50;;;;;;;33.95;27.80;95339.22;5120241;27;20204;-58
2023/10/29 11:16:55;;;;;;;0.30;0.20;;;;;;;33.46;29.15;95347.06;5134180;27;20192;-57
2023/10/29 11:19:48;;;;;;;0.40;0.30;;;;;;;32.26;31.29;95343.03;5133211;27;20494;-57
2023/10/29 11:22:17;;;;;;;0.30;0.20;;;;;;;31.89;31.59;95340.22;5114019;27;20446;-58
2023/10/29 11:25:39;;;;;;;0.47;0.40;;;;;;;32.58;30.85;95335.28;5134225;27;20457;-58
2023/10/29 11:28:42;;;;;;;0.40;0.30;;;;;;;33.73;30.16;95325.84;5133274;27;20514;-59
2023/10/29 11:31:15;;;;;;;0.40;0.30;;;;;;;33.72;30.18;95332.53;5134148;27;20975;-59
2023/10/29 11:33:44;;;;;;;0.40;0.30;;;;;;;33.68;29.72;95331.81;5134424;27;20434;-59
2023/10/29 11:36:32;;;;;;;0.30;0.20;;;;;;;34.98;27.88;95330.63;5133937;27;21207;-59
2023/10/29 11:39:31;;;;;;;0.30;0.20;;;;;;;35.84;27.18;95320.00;5133393;27;20444;-58